sensor_id;sensor_type;location;lat;lon;timestamp;pressure;altitude;pressure_sealevel;temperature;humidity
13968;BME280;39536;52.198;9.920;2023-02-16T00:01:15;101538.09;;;4.51;100.00
13968;BME280;39536;52.198;9.920;2023-02-16T00:03:42;101544.16;;;4.52;100.00
13968;BME280;39536;52.198;9.920;2023-02-16T00:06:09;101543.31;;;4.57;100.00
13968;BME280;39536;52.198;9.920;2023-02-16T00:08:38;101547.59;;;4.54;100.00
13968;BME280;39536;52.198;9.920;2023-02-16T00:11:12;101542.50;;;4.61;100.00
13968;BME280;39536;52.198;9.920;2023-02-16T00:13:58;101547.75;;;4.71;100.00
13968;BME280;39536;52.198;9.920;2023-02-16T00:16:24;101555.47;;;4.72;100.00
13968;BME280;39536;52.198;9.920;2023-02-16T00:18:51;101549.47;;;4.76;100.00
13968;BME280;39536;52.198;9.920;2023-02-16T00:21:18;101558.13;;;4.81;100.00
13968;BME280;39536;52.198;9.920;2023-02-16T00:23:45;101556.41;;;4.80;100.00
13968;BME280;39536;52.198;9.920;2023-02-16T00:26:16;101560.69;;;4.78;100.00
13968;BME280;39536;52.198;9.920;2023-02-16T00:28:43;101559.00;;;4.80;100.00
13968;BME280;39536;52.198;9.920;2023-02-16T00:31:16;101557.22;;;4.75;100.00
13968;BME280;39536;52.198;9.920;2023-02-16T00:33:43;101552.94;;;4.75;100.00
13968;BME280;39536;52.198;9.920;2023-02-16T00:36:10;101556.41;;;4.77;100.00
13968;BME280;39536;52.198;9.920;2023-02-16T00:38:37;101556.38;;;4.76;100.00
13968;BME280;39536;52.198;9.920;2023-02-16T00:41:04;101550.38;;;4.78;100.00
13968;BME280;39536;52.198;9.920;2023-02-16T00:43:52;101544.28;;;4.70;100.00
13968;BME280;39536;52.198;9.920;2023-02-16T00:46:20;101528.78;;;4.69;100.00
13968;BME280;39536;52.198;9.920;2023-02-16T00:48:47;101532.19;;;4.63;100.00
13968;BME280;39536;52.198;9.920;2023-02-16T00:51:13;101540.75;;;4.59;100.00
13968;BME280;39536;52.198;9.920;2023-02-16T00:53:40;101535.50;;;4.47;100.00
13968;BME280;39536;52.198;9.920;2023-02-16T00:58:43;101518.03;;;4.15;100.00
13968;BME280;39536;52.198;9.920;2023-02-16T01:01:13;101525.66;;;4.06;100.00
13968;BME280;39536;52.198;9.920;2023-02-16T01:03:42;101520.41;;;3.97;100.00
13968;BME280;39536;52.198;9.920;2023-02-16T01:06:09;101525.56;;;3.98;100.00
13968;BME280;39536;52.198;9.920;2023-02-16T01:08:54;101527.19;;;3.87;100.00
13968;BME280;39536;52.198;9.920;2023-02-16T01:11:45;101531.47;;;3.88;100.00
13968;BME280;39536;52.198;9.920;2023-02-16T01:14:12;101529.81;;;3.91;100.00
13968;BME280;39536;52.198;9.920;2023-02-16T01:16:41;101522.06;;;3.91;100.00
13968;BME280;39536;52.198;9.920;2023-02-16T01:19:09;101505.84;;;4.02;100.00
13968;BME280;39536;52.198;9.920;2023-02-16T01:21:36;101493.00;;;4.08;100.00
13968;BME280;39536;52.198;9.920;2023-02-16T01:24:03;101500.75;;;4.08;100.00
13968;BME280;39536;52.198;9.920;2023-02-16T01:26:31;101499.06;;;4.10;100.00
13968;BME280;39536;52.198;9.920;2023-02-16T01:29:02;101498.19;;;4.11;100.00
13968;BME280;39536;52.198;9.920;2023-02-16T01:31:29;101488.78;;;4.13;100.00
13968;BME280;39536;52.198;9.920;2023-02-16T01:33:57;101484.47;;;4.12;100.00
13968;BME280;39536;52.198;9.920;2023-02-16T01:36:26;101479.31;;;4.13;100.00
13968;BME280;39536;52.198;9.920;2023-02-16T01:38:54;101478.53;;;4.22;100.00
13968;BME280;39536;52.198;9.920;2023-02-16T01:41:28;101488.06;;;4.29;100.00
13968;BME280;39536;52.198;9.920;2023-02-16T01:44:04;101491.53;;;4.36;100.00
13968;BME280;39536;52.198;9.920;2023-02-16T01:46:37;101492.31;;;4.26;100.00
13968;BME280;39536;52.198;9.920;2023-02-16T01:49:11;101493.13;;;4.20;100.00
13968;BME280;39536;52.198;9.920;2023-02-16T01:51:47;101484.38;;;4.03;100.00
13968;BME280;39536;52.198;9.920;2023-02-16T01:54:31;101486.88;;;3.95;100.00
13968;BME280;39536;52.198;9.920;2023-02-16T01:57:04;101491.13;;;3.91;100.00
13968;BME280;39536;52.198;9.920;2023-02-16T01:59:39;101489.41;;;3.90;100.00
13968;BME280;39536;52.198;9.920;2023-02-16T02:02:12;101483.34;;;3.85;100.00
13968;BME280;39536;52.198;9.920;2023-02-16T02:04:45;101487.53;;;3.76;100.00
13968;BME280;39536;52.198;9.920;2023-02-16T02:07:36;101472.13;;;3.77;100.00
13968;BME280;39536;52.198;9.920;2023-02-16T02:10:09;101485.00;;;3.79;100.00
13968;BME280;39536;52.198;9.920;2023-02-16T02:12:47;101478.09;;;3.76;100.00
13968;BME280;39536;52.198;9.920;2023-02-16T02:15:19;101478.19;;;3.85;100.00
13968;BME280;39536;52.198;9.920;2023-02-16T02:17:47;101479.06;;;3.84;100.00
13968;BME280;39536;52.198;9.920;2023-02-16T02:20:22;101474.81;;;3.91;100.00
13968;BME280;39536;52.198;9.920;2023-02-16T02:23:22;101475.56;;;3.81;100.00
13968;BME280;39536;52.198;9.920;2023-02-16T02:29:47;101455.81;;;3.81;100.00
13968;BME280;39536;52.198;9.920;2023-02-16T02:32:26;101452.47;;;3.91;100.00
13968;BME280;39536;52.198;9.920;2023-02-16T02:35:02;101455.91;;;3.90;100.00
13968;BME280;39536;52.198;9.920;2023-02-16T02:37:45;101451.53;;;3.82;100.00
13968;BME280;39536;52.198;9.920;2023-02-16T02:40:20;101456.81;;;3.92;100.00
13968;BME280;39536;52.198;9.920;2023-02-16T02:42:58;101455.97;;;3.98;100.00
13968;BME280;39536;52.198;9.920;2023-02-16T02:45:28;101453.41;;;3.97;100.00
13968;BME280;39536;52.198;9.920;2023-02-16T02:47:57;101450.88;;;4.04;100.00
13968;BME280;39536;52.198;9.920;2023-02-16T02:50:39;101454.38;;;4.09;100.00
13968;BME280;39536;52.198;9.920;2023-02-16T02:53:27;101455.25;;;4.11;100.00
13968;BME280;39536;52.198;9.920;2023-02-16T02:55:56;101455.22;;;4.10;100.00
13968;BME280;39536;52.198;9.920;2023-02-16T02:58:42;101458.59;;;4.00;100.00
13968;BME280;39536;52.198;9.920;2023-02-16T03:01:32;101457.66;;;3.94;100.00
13968;BME280;39536;52.198;9.920;2023-02-16T03:04:03;101452.44;;;3.88;100.00
13968;BME280;39536;52.198;9.920;2023-02-16T03:06:33;101450.59;;;3.77;100.00
13968;BME280;39536;52.198;9.920;2023-02-16T03:09:05;101455.75;;;3.77;100.00
13968;BME280;39536;52.198;9.920;2023-02-16T03:11:32;101451.59;;;3.88;100.00
13968;BME280;39536;52.198;9.920;2023-02-16T03:14:19;101453.41;;;3.97;100.00
13968;BME280;39536;52.198;9.920;2023-02-16T03:16:51;101462.03;;;4.00;100.00
13968;BME280;39536;52.198;9.920;2023-02-16T03:19:38;101461.28;;;4.12;100.00
13968;BME280;39536;52.198;9.920;2023-02-16T03:22:23;101463.94;;;4.21;100.00
13968;BME280;39536;52.198;9.920;2023-02-16T03:25:07;101469.88;;;4.17;100.00
13968;BME280;39536;52.198;9.920;2023-02-16T03:27:53;101466.47;;;4.18;100.00
13968;BME280;39536;52.198;9.920;2023-02-16T03:30:39;101471.59;;;4.16;100.00
13968;BME280;39536;52.198;9.920;2023-02-16T03:33:08;101467.34;;;4.20;100.00
13968;BME280;39536;52.198;9.920;2023-02-16T03:35:35;101465.44;;;4.01;100.00
13968;BME280;39536;52.198;9.920;2023-02-16T03:38:02;101465.41;;;3.94;100.00
13968;BME280;39536;52.198;9.920;2023-02-16T03:40:30;101472.19;;;3.83;100.00
13968;BME280;39536;52.198;9.920;2023-02-16T03:43:02;101475.53;;;3.78;100.00
13968;BME280;39536;52.198;9.920;2023-02-16T03:45:29;101478.81;;;3.63;100.00
13968;BME280;39536;52.198;9.920;2023-02-16T03:47:56;101479.69;;;3.62;100.00
13968;BME280;39536;52.198;9.920;2023-02-16T03:50:24;101470.25;;;3.65;100.00
13968;BME280;39536;52.198;9.920;2023-02-16T03:52:51;101470.28;;;3.68;100.00
13968;BME280;39536;52.198;9.920;2023-02-16T03:55:18;101464.25;;;3.66;100.00
13968;BME280;39536;52.198;9.920;2023-02-16T03:57:44;101466.81;;;3.65;100.00
13968;BME280;39536;52.198;9.920;2023-02-16T04:00:12;101467.63;;;3.59;100.00
13968;BME280;39536;52.198;9.920;2023-02-16T04:02:38;101481.28;;;3.52;100.00
13968;BME280;39536;52.198;9.920;2023-02-16T04:05:05;101478.78;;;3.58;100.00
13968;BME280;39536;52.198;9.920;2023-02-16T04:07:33;101466.78;;;3.63;100.00
13968;BME280;39536;52.198;9.920;2023-02-16T04:10:00;101472.81;;;3.62;100.00
13968;BME280;39536;52.198;9.920;2023-02-16T04:12:26;101466.78;;;3.62;100.00
13968;BME280;39536;52.198;9.920;2023-02-16T04:15:01;101478.00;;;3.67;100.00
13968;BME280;39536;52.198;9.920;2023-02-16T04:17:28;101468.53;;;3.66;100.00
13968;BME280;39536;52.198;9.920;2023-02-16T04:19:55;101463.38;;;3.67;100.00
13968;BME280;39536;52.198;9.920;2023-02-16T04:22:21;101464.31;;;3.71;100.00
13968;BME280;39536;52.198;9.920;2023-02-16T04:24:49;101472.94;;;3.75;100.00
13968;BME280;39536;52.198;9.920;2023-02-16T04:27:16;101464.41;;;3.80;100.00
13968;BME280;39536;52.198;9.920;2023-02-16T04:29:42;101460.13;;;3.82;100.00
13968;BME280;39536;52.198;9.920;2023-02-16T04:32:09;101453.22;;;3.78;100.00
13968;BME280;39536;52.198;9.920;2023-02-16T04:34:36;101456.63;;;3.76;100.00
13968;BME280;39536;52.198;9.920;2023-02-16T04:37:02;101457.53;;;3.81;100.00
13968;BME280;39536;52.198;9.920;2023-02-16T04:39:30;101452.38;;;3.82;100.00
13968;BME280;39536;52.198;9.920;2023-02-16T04:41:58;101445.44;;;3.74;100.00
13968;BME280;39536;52.198;9.920;2023-02-16T04:44:24;101445.38;;;3.69;100.00
13968;BME280;39536;52.198;9.920;2023-02-16T04:46:51;101439.31;;;3.64;100.00
13968;BME280;39536;52.198;9.920;2023-02-16T04:49:17;101434.03;;;3.52;100.00
13968;BME280;39536;52.198;9.920;2023-02-16T04:51:44;101428.75;;;3.39;100.00
13968;BME280;39536;52.198;9.920;2023-02-16T04:54:11;101422.69;;;3.36;100.00
13968;BME280;39536;52.198;9.920;2023-02-16T04:56:37;101414.94;;;3.31;100.00
13968;BME280;39536;52.198;9.920;2023-02-16T04:59:05;101418.38;;;3.32;100.00
13968;BME280;39536;52.198;9.920;2023-02-16T05:01:32;101419.22;;;3.31;100.00
13968;BME280;39536;52.198;9.920;2023-02-16T05:03:59;101416.56;;;3.21;100.00
13968;BME280;39536;52.198;9.920;2023-02-16T05:06:25;101422.56;;;3.22;100.00
13968;BME280;39536;52.198;9.920;2023-02-16T05:08:52;101429.41;;;3.21;100.00
13968;BME280;39536;52.198;9.920;2023-02-16T05:11:19;101429.53;;;3.31;100.00
13968;BME280;39536;52.198;9.920;2023-02-16T05:14:02;101429.59;;;3.37;100.00
13968;BME280;39536;52.198;9.920;2023-02-16T05:16:48;101431.22;;;3.29;100.00
13968;BME280;39536;52.198;9.920;2023-02-16T05:19:14;101428.53;;;3.18;100.00
13968;BME280;39536;52.198;9.920;2023-02-16T05:21:41;101427.59;;;3.14;100.00
13968;BME280;39536;52.198;9.920;2023-02-16T05:24:09;101419.09;;;3.20;100.00
13968;BME280;39536;52.198;9.920;2023-02-16T05:26:37;101415.72;;;3.26;100.00
13968;BME280;39536;52.198;9.920;2023-02-16T05:29:05;101425.16;;;3.27;100.00
13968;BME280;39536;52.198;9.920;2023-02-16T05:31:32;101433.75;;;3.24;100.00
13968;BME280;39536;52.198;9.920;2023-02-16T05:34:00;101438.91;;;3.24;100.00
13968;BME280;39536;52.198;9.920;2023-02-16T05:36:26;101427.66;;;3.20;100.00
13968;BME280;39536;52.198;9.920;2023-02-16T05:38:53;101443.13;;;3.19;100.00
13968;BME280;39536;52.198;9.920;2023-02-16T05:41:19;101443.06;;;3.17;100.00
13968;BME280;39536;52.198;9.920;2023-02-16T05:43:50;101450.72;;;3.10;100.00
13968;BME280;39536;52.198;9.920;2023-02-16T05:46:17;101439.47;;;3.03;100.00
13968;BME280;39536;52.198;9.920;2023-02-16T05:48:43;101437.72;;;3.02;100.00
13968;BME280;39536;52.198;9.920;2023-02-16T05:51:11;101433.47;;;3.03;100.00
13968;BME280;39536;52.198;9.920;2023-02-16T05:53:38;101440.25;;;2.97;100.00
13968;BME280;39536;52.198;9.920;2023-02-16T05:56:05;101444.50;;;2.95;100.00
13968;BME280;39536;52.198;9.920;2023-02-16T05:58:32;101443.53;;;2.84;100.00
13968;BME280;39536;52.198;9.920;2023-02-16T06:00:59;101447.78;;;2.81;100.00
13968;BME280;39536;52.198;9.920;2023-02-16T06:03:25;101434.81;;;2.74;100.00
13968;BME280;39536;52.198;9.920;2023-02-16T06:05:53;101440.81;;;2.75;100.00
13968;BME280;39536;52.198;9.920;2023-02-16T06:08:21;101440.88;;;2.80;100.00
13968;BME280;39536;52.198;9.920;2023-02-16T06:10:49;101441.03;;;2.90;100.00
13968;BME280;39536;52.198;9.920;2023-02-16T06:13:16;101433.38;;;2.95;100.00
13968;BME280;39536;52.198;9.920;2023-02-16T06:15:43;101434.31;;;3.00;100.00
13968;BME280;39536;52.198;9.920;2023-02-16T06:18:11;101443.78;;;3.03;100.00
13968;BME280;39536;52.198;9.920;2023-02-16T06:20:38;101443.00;;;3.10;100.00
13968;BME280;39536;52.198;9.920;2023-02-16T06:23:07;101435.28;;;3.10;100.00
13968;BME280;39536;52.198;9.920;2023-02-16T06:25:36;101433.63;;;3.16;100.00
13968;BME280;39536;52.198;9.920;2023-02-16T06:28:03;101447.41;;;3.18;100.00
13968;BME280;39536;52.198;9.920;2023-02-16T06:30:30;101448.31;;;3.22;100.00
13968;BME280;39536;52.198;9.920;2023-02-16T06:32:57;101440.56;;;3.22;100.00
13968;BME280;39536;52.198;9.920;2023-02-16T06:35:23;101438.91;;;3.26;100.00
13968;BME280;39536;52.198;9.920;2023-02-16T06:37:50;101437.22;;;3.29;100.00
13968;BME280;39536;52.198;9.920;2023-02-16T06:40:17;101438.16;;;3.34;100.00
13968;BME280;39536;52.198;9.920;2023-02-16T06:42:44;101437.28;;;3.35;100.00
13968;BME280;39536;52.198;9.920;2023-02-16T06:45:11;101437.28;;;3.35;100.00
13968;BME280;39536;52.198;9.920;2023-02-16T06:47:38;101442.47;;;3.37;100.00
13968;BME280;39536;52.198;9.920;2023-02-16T06:50:06;101433.09;;;3.45;100.00
13968;BME280;39536;52.198;9.920;2023-02-16T06:52:34;101433.13;;;3.48;100.00
13968;BME280;39536;52.198;9.920;2023-02-16T06:55:00;101441.75;;;3.52;100.00
13968;BME280;39536;52.198;9.920;2023-02-16T06:57:27;101439.25;;;3.56;100.00
13968;BME280;39536;52.198;9.920;2023-02-16T06:59:55;101439.25;;;3.58;100.00
13968;BME280;39536;52.198;9.920;2023-02-16T07:02:22;101432.38;;;3.57;100.00
13968;BME280;39536;52.198;9.920;2023-02-16T07:04:49;101442.69;;;3.57;100.00
13968;BME280;39536;52.198;9.920;2023-02-16T07:07:15;101437.53;;;3.57;100.00
13968;BME280;39536;52.198;9.920;2023-02-16T07:09:42;101446.94;;;3.55;100.00
13968;BME280;39536;52.198;9.920;2023-02-16T07:12:09;101462.44;;;3.58;100.00
13968;BME280;39536;52.198;9.920;2023-02-16T07:14:36;101451.34;;;3.63;100.00
13968;BME280;39536;52.198;9.920;2023-02-16T07:17:05;101453.88;;;3.60;100.00
13968;BME280;39536;52.198;9.920;2023-02-16T07:19:31;101443.59;;;3.62;100.00
13968;BME280;39536;52.198;9.920;2023-02-16T07:21:58;101439.38;;;3.70;100.00
13968;BME280;39536;52.198;9.920;2023-02-16T07:24:27;101437.72;;;3.77;100.00
13968;BME280;39536;52.198;9.920;2023-02-16T07:26:55;101439.50;;;3.81;100.00
13968;BME280;39536;52.198;9.920;2023-02-16T07:29:59;101442.97;;;3.84;100.00
13968;BME280;39536;52.198;9.920;2023-02-16T07:33:15;101448.22;;;3.95;100.00
13968;BME280;39536;52.198;9.920;2023-02-16T07:36:04;101453.38;;;3.95;100.00
13968;BME280;39536;52.198;9.920;2023-02-16T07:39:22;101449.06;;;3.96;100.00
13968;BME280;39536;52.198;9.920;2023-02-16T07:41:50;101455.16;;;4.01;100.00
13968;BME280;39536;52.198;9.920;2023-02-16T07:44:20;101461.13;;;3.98;100.00
13968;BME280;39536;52.198;9.920;2023-02-16T07:46:47;101453.47;;;4.06;100.00
13968;BME280;39536;52.198;9.920;2023-02-16T07:49:15;101457.78;;;4.07;100.00
13968;BME280;39536;52.198;9.920;2023-02-16T07:51:45;101460.28;;;4.01;100.00
13968;BME280;39536;52.198;9.920;2023-02-16T07:54:21;101450.81;;;3.98;100.00
13968;BME280;39536;52.198;9.920;2023-02-16T07:56:48;101447.47;;;4.05;100.00
13968;BME280;39536;52.198;9.920;2023-02-16T07:59:26;101451.84;;;4.15;100.00
13968;BME280;39536;52.198;9.920;2023-02-16T08:02:14;101449.38;;;4.29;100.00
13968;BME280;39536;52.198;9.920;2023-02-16T08:18:28;101470.53;;;5.06;100.00
13968;BME280;39536;52.198;9.920;2023-02-16T08:20:55;101462.81;;;5.15;100.00
13968;BME280;39536;52.198;9.920;2023-02-16T08:23:22;101466.28;;;5.17;100.00
13968;BME280;39536;52.198;9.920;2023-02-16T08:25:49;101468.88;;;5.25;100.00
13968;BME280;39536;52.198;9.920;2023-02-16T08:28:15;101458.56;;;5.32;100.00
13968;BME280;39536;52.198;9.920;2023-02-16T08:30:42;101454.28;;;5.38;100.00
13968;BME280;39536;52.198;9.920;2023-02-16T08:33:08;101455.16;;;5.40;100.00
13968;BME280;39536;52.198;9.920;2023-02-16T08:35:38;101455.16;;;5.40;100.00
13968;BME280;39536;52.198;9.920;2023-02-16T08:38:04;101452.59;;;5.46;100.00
13968;BME280;39536;52.198;9.920;2023-02-16T08:40:33;101456.94;;;5.48;100.00
13968;BME280;39536;52.198;9.920;2023-02-16T08:42:59;101456.91;;;5.50;100.00
13968;BME280;39536;52.198;9.920;2023-02-16T08:45:26;101457.81;;;5.55;100.00
13968;BME280;39536;52.198;9.920;2023-02-16T08:47:53;101450.09;;;5.64;100.00
13968;BME280;39536;52.198;9.920;2023-02-16T08:50:20;101457.81;;;5.69;100.00
13968;BME280;39536;52.198;9.920;2023-02-16T08:52:48;101456.09;;;5.65;100.00
13968;BME280;39536;52.198;9.920;2023-02-16T08:55:15;101455.25;;;5.66;100.00
13968;BME280;39536;52.198;9.920;2023-02-16T08:57:42;101448.34;;;5.65;100.00
13968;BME280;39536;52.198;9.920;2023-02-16T09:00:09;101449.22;;;5.70;100.00
13968;BME280;39536;52.198;9.920;2023-02-16T09:02:57;101445.81;;;5.80;100.00
13968;BME280;39536;52.198;9.920;2023-02-16T09:05:24;101448.41;;;5.89;100.00
13968;BME280;39536;52.198;9.920;2023-02-16T09:07:53;101451.88;;;5.97;100.00
13968;BME280;39536;52.198;9.920;2023-02-16T09:10:20;101443.28;;;6.12;100.00
13968;BME280;39536;52.198;9.920;2023-02-16T09:12:47;101438.09;;;6.24;100.00
13968;BME280;39536;52.198;9.920;2023-02-16T09:15:15;101442.38;;;6.41;100.00
13968;BME280;39536;52.198;9.920;2023-02-16T09:17:41;101427.72;;;6.49;100.00
13968;BME280;39536;52.198;9.920;2023-02-16T09:20:09;101432.91;;;6.55;100.00
13968;BME280;39536;52.198;9.920;2023-02-16T09:22:36;101429.44;;;6.56;100.00
13968;BME280;39536;52.198;9.920;2023-02-16T09:25:05;101432.03;;;6.61;100.00
13968;BME280;39536;52.198;9.920;2023-02-16T09:27:32;101424.25;;;6.68;100.00
13968;BME280;39536;52.198;9.920;2023-02-16T09:29:59;101423.34;;;6.72;100.00
13968;BME280;39536;52.198;9.920;2023-02-16T09:32:27;101430.25;;;6.78;100.00
13968;BME280;39536;52.198;9.920;2023-02-16T09:34:54;101436.28;;;6.82;100.00
13968;BME280;39536;52.198;9.920;2023-02-16T09:37:21;101431.13;;;6.76;100.00
13968;BME280;39536;52.198;9.920;2023-02-16T09:39:47;101441.47;;;6.69;100.00
13968;BME280;39536;52.198;9.920;2023-02-16T09:42:26;101438.91;;;6.69;100.00
13968;BME280;39536;52.198;9.920;2023-02-16T09:45:02;101441.50;;;6.65;100.00
13968;BME280;39536;52.198;9.920;2023-02-16T09:47:33;101437.19;;;6.65;100.00
13968;BME280;39536;52.198;9.920;2023-02-16T09:50:02;101435.44;;;6.72;100.00
13968;BME280;39536;52.198;9.920;2023-02-16T09:52:34;101439.75;;;6.75;100.00
13968;BME280;39536;52.198;9.920;2023-02-16T09:55:07;101428.50;;;6.92;100.00
13968;BME280;39536;52.198;9.920;2023-02-16T09:57:45;101426.75;;;6.93;100.00
13968;BME280;39536;52.198;9.920;2023-02-16T10:00:24;101422.41;;;7.07;100.00
13968;BME280;39536;52.198;9.920;2023-02-16T10:02:56;101437.03;;;7.21;100.00
13968;BME280;39536;52.198;9.920;2023-02-16T10:05:30;101421.44;;;7.27;100.00
13968;BME280;39536;52.198;9.920;2023-02-16T10:08:01;101428.34;;;7.28;100.00
13968;BME280;39536;52.198;9.920;2023-02-16T10:10:34;101437.84;;;7.23;100.00
13968;BME280;39536;52.198;9.920;2023-02-16T10:13:09;101446.50;;;7.26;100.00
13968;BME280;39536;52.198;9.920;2023-02-16T10:15:42;101437.81;;;7.35;100.00
13968;BME280;39536;52.198;9.920;2023-02-16T10:18:17;101447.31;;;7.39;100.00
13968;BME280;39536;52.198;9.920;2023-02-16T10:20:47;101442.06;;;7.47;100.00
13968;BME280;39536;52.198;9.920;2023-02-16T10:23:28;101449.84;;;7.51;100.00
13968;BME280;39536;52.198;9.920;2023-02-16T10:26:00;101448.06;;;7.58;100.00
13968;BME280;39536;52.198;9.920;2023-02-16T10:28:37;101450.63;;;7.62;100.00
13968;BME280;39536;52.198;9.920;2023-02-16T10:31:12;101453.16;;;7.72;100.00
13968;BME280;39536;52.198;9.920;2023-02-16T10:33:41;101462.72;;;7.67;100.00
13968;BME280;39536;52.198;9.920;2023-02-16T10:36:22;101456.63;;;7.74;100.00
13968;BME280;39536;52.198;9.920;2023-02-16T10:38:59;101447.94;;;7.79;100.00
13968;BME280;39536;52.198;9.920;2023-02-16T10:41:31;101448.75;;;7.84;100.00
13968;BME280;39536;52.198;9.920;2023-02-16T10:44:10;101436.72;;;7.77;100.00
13968;BME280;39536;52.198;9.920;2023-02-16T10:46:40;101433.16;;;7.91;100.00
13968;BME280;39536;52.198;9.920;2023-02-16T10:49:10;101427.94;;;7.98;100.00
13968;BME280;39536;52.198;9.920;2023-02-16T10:51:39;101423.47;;;8.13;100.00
13968;BME280;39536;52.198;9.920;2023-02-16T10:54:13;101419.16;;;8.16;100.00
13968;BME280;39536;52.198;9.920;2023-02-16T10:56:48;101419.06;;;8.24;100.00
13968;BME280;39536;52.198;9.920;2023-02-16T10:59:20;101418.09;;;8.39;100.00
13968;BME280;39536;52.198;9.920;2023-02-16T11:01:49;101415.38;;;8.54;100.00
13968;BME280;39536;52.198;9.920;2023-02-16T11:04:30;101430.13;;;8.50;100.00
13968;BME280;39536;52.198;9.920;2023-02-16T11:07:01;101425.78;;;8.49;100.00
13968;BME280;39536;52.198;9.920;2023-02-16T11:09:29;101432.78;;;8.44;100.00
13968;BME280;39536;52.198;9.920;2023-02-16T11:11:56;101425.88;;;8.34;100.00
13968;BME280;39536;52.198;9.920;2023-02-16T11:14:25;101416.38;;;8.31;100.00
13968;BME280;39536;52.198;9.920;2023-02-16T11:17:06;101422.50;;;8.29;100.00
13968;BME280;39536;52.198;9.920;2023-02-16T11:19:36;101422.53;;;8.26;100.00
13968;BME280;39536;52.198;9.920;2023-02-16T11:22:04;101429.53;;;8.16;100.00
13968;BME280;39536;52.198;9.920;2023-02-16T11:24:34;101433.84;;;8.14;100.00
13968;BME280;39536;52.198;9.920;2023-02-16T11:27:04;101429.56;;;8.13;100.00
13968;BME280;39536;52.198;9.920;2023-02-16T11:29:33;101422.59;;;8.17;100.00
13968;BME280;39536;52.198;9.920;2023-02-16T11:32:04;101421.78;;;8.10;100.00
13968;BME280;39536;52.198;9.920;2023-02-16T11:34:33;101413.97;;;8.12;100.00
13968;BME280;39536;52.198;9.920;2023-02-16T11:37:05;101407.13;;;8.03;100.00
13968;BME280;39536;52.198;9.920;2023-02-16T11:39:36;101402.75;;;8.06;100.00
13968;BME280;39536;52.198;9.920;2023-02-16T11:42:06;101395.84;;;8.08;100.00
13968;BME280;39536;52.198;9.920;2023-02-16T11:44:37;101393.25;;;8.08;100.00
13968;BME280;39536;52.198;9.920;2023-02-16T11:47:06;101400.94;;;8.18;100.00
13968;BME280;39536;52.198;9.920;2023-02-16T11:49:36;101400.06;;;8.19;100.00
13968;BME280;39536;52.198;9.920;2023-02-16T11:52:19;101393.13;;;8.19;100.00
13968;BME280;39536;52.198;9.920;2023-02-16T11:54:50;101395.66;;;8.28;100.00
13968;BME280;39536;52.198;9.920;2023-02-16T11:57:22;101398.22;;;8.31;100.00
13968;BME280;39536;52.198;9.920;2023-02-16T11:59:53;101399.13;;;8.29;100.00
13968;BME280;39536;52.198;9.920;2023-02-16T12:02:42;101395.66;;;8.28;100.00
13968;BME280;39536;52.198;9.920;2023-02-16T12:05:24;101393.00;;;8.34;100.00
13968;BME280;39536;52.198;9.920;2023-02-16T12:08:07;101385.31;;;8.24;100.00
13968;BME280;39536;52.198;9.920;2023-02-16T12:10:38;101391.22;;;8.44;100.00
13968;BME280;39536;52.198;9.920;2023-02-16T12:13:14;101380.78;;;8.49;100.00
13968;BME280;39536;52.198;9.920;2023-02-16T12:15:48;101393.63;;;8.61;100.00
13968;BME280;39536;52.198;9.920;2023-02-16T12:18:26;101384.00;;;8.72;100.00
13968;BME280;39536;52.198;9.920;2023-02-16T12:21:02;101383.84;;;8.85;100.00
13968;BME280;39536;52.198;9.920;2023-02-16T12:23:37;101384.69;;;8.87;100.00
13968;BME280;39536;52.198;9.920;2023-02-16T12:26:31;101380.22;;;8.96;100.00
13968;BME280;39536;52.198;9.920;2023-02-16T12:29:12;101386.44;;;8.86;100.00
13968;BME280;39536;52.198;9.920;2023-02-16T12:32:09;101394.09;;;8.97;100.00
13968;BME280;39536;52.198;9.920;2023-02-16T12:34:48;101387.09;;;9.04;100.00
13968;BME280;39536;52.198;9.920;2023-02-16T12:37:22;101380.78;;;9.23;100.00
13968;BME280;39536;52.198;9.920;2023-02-16T12:39:59;101382.19;;;9.45;100.00
13968;BME280;39536;52.198;9.920;2023-02-16T12:42:42;101384.63;;;9.58;100.00
13968;BME280;39536;52.198;9.920;2023-02-16T12:45:13;101381.78;;;9.71;100.00
13968;BME280;39536;52.198;9.920;2023-02-16T12:47:47;101380.84;;;9.77;100.00
13968;BME280;39536;52.198;9.920;2023-02-16T12:50:19;101376.25;;;9.94;100.00
13968;BME280;39536;52.198;9.920;2023-02-16T12:52:50;101373.44;;;10.05;100.00
13968;BME280;39536;52.198;9.920;2023-02-16T12:55:20;101367.44;;;10.02;100.00
13968;BME280;39536;52.198;9.920;2023-02-16T12:57:54;101371.88;;;9.95;100.00
13968;BME280;39536;52.198;9.920;2023-02-16T13:00:27;101368.38;;;9.98;100.00
13968;BME280;39536;52.198;9.920;2023-02-16T13:03:14;101375.53;;;9.83;100.00
13968;BME280;39536;52.198;9.920;2023-02-16T13:05:48;101367.81;;;9.79;100.00
13968;BME280;39536;52.198;9.920;2023-02-16T13:08:23;101365.31;;;9.73;100.00
13968;BME280;39536;52.198;9.920;2023-02-16T13:10:56;101361.13;;;9.62;100.00
13968;BME280;39536;52.198;9.920;2023-02-16T13:13:26;101358.59;;;9.58;100.00
13968;BME280;39536;52.198;9.920;2023-02-16T13:16:00;101357.00;;;9.51;100.00
13968;BME280;39536;52.198;9.920;2023-02-16T13:18:35;101353.53;;;9.48;100.00
13968;BME280;39536;52.198;9.920;2023-02-16T13:21:07;101352.81;;;9.39;100.00
13968;BME280;39536;52.198;9.920;2023-02-16T13:23:46;101351.19;;;9.32;100.00
13968;BME280;39536;52.198;9.920;2023-02-16T13:26:27;101352.94;;;9.28;100.00
13968;BME280;39536;52.198;9.920;2023-02-16T13:29:19;101341.78;;;9.23;100.00
13968;BME280;39536;52.198;9.920;2023-02-16T13:31:58;101337.41;;;9.27;100.00
13968;BME280;39536;52.198;9.920;2023-02-16T13:34:46;101339.25;;;9.17;100.00